sensor_id;sensor_type;location;lat;lon;timestamp;pressure;altitude;pressure_sealevel;temperature;humidity
47753;BME280;2038;51.728;6.674;2022-08-05T00:00:01;100753.50;;;20.69;100.00
47753;BME280;2038;51.728;6.674;2022-08-05T00:02:28;100766.28;;;20.63;100.00
47753;BME280;2038;51.728;6.674;2022-08-05T00:04:54;100760.09;;;20.56;100.00
47753;BME280;2038;51.728;6.674;2022-08-05T00:07:21;100762.84;;;20.62;100.00
47753;BME280;2038;51.728;6.674;2022-08-05T00:09:50;100769.63;;;20.59;100.00
47753;BME280;2038;51.728;6.674;2022-08-05T00:12:16;100767.94;;;20.59;100.00
47753;BME280;2038;51.728;6.674;2022-08-05T00:14:44;100767.03;;;20.59;100.00
47753;BME280;2038;51.728;6.674;2022-08-05T00:17:10;100769.63;;;20.59;100.00
47753;BME280;2038;51.728;6.674;2022-08-05T00:19:36;100760.69;;;20.80;100.00
47753;BME280;2038;51.728;6.674;2022-08-05T00:22:03;100758.22;;;20.85;100.00
47753;BME280;2038;51.728;6.674;2022-08-05T00:24:29;100764.28;;;20.85;100.00
47753;BME280;2038;51.728;6.674;2022-08-05T00:26:56;100766.88;;;20.85;100.00
47753;BME280;2038;51.728;6.674;2022-08-05T00:29:22;100766.75;;;20.81;100.00
47753;BME280;2038;51.728;6.674;2022-08-05T00:31:48;100765.94;;;20.83;100.00
47753;BME280;2038;51.728;6.674;2022-08-05T00:34:14;100761.56;;;20.81;100.00
47753;BME280;2038;51.728;6.674;2022-08-05T00:36:41;100768.41;;;20.77;100.00
47753;BME280;2038;51.728;6.674;2022-08-05T00:39:07;100763.09;;;20.73;100.00
47753;BME280;2038;51.728;6.674;2022-08-05T00:41:35;100756.22;;;20.73;100.00
47753;BME280;2038;51.728;6.674;2022-08-05T00:44:01;100755.16;;;20.67;100.00
47753;BME280;2038;51.728;6.674;2022-08-05T00:46:28;100754.97;;;20.59;100.00
47753;BME280;2038;51.728;6.674;2022-08-05T00:48:54;100754.97;;;20.59;100.00
47753;BME280;2038;51.728;6.674;2022-08-05T00:51:22;100758.69;;;20.69;100.00
47753;BME280;2038;51.728;6.674;2022-08-05T00:53:48;100757.94;;;20.73;100.00
47753;BME280;2038;51.728;6.674;2022-08-05T00:56:16;100767.34;;;20.69;100.00
47753;BME280;2038;51.728;6.674;2022-08-05T00:58:42;100777.41;;;20.59;100.00
47753;BME280;2038;51.728;6.674;2022-08-05T01:01:10;100781.75;;;20.58;100.00
47753;BME280;2038;51.728;6.674;2022-08-05T01:03:39;100781.06;;;20.67;100.00
47753;BME280;2038;51.728;6.674;2022-08-05T01:06:06;100786.09;;;20.61;100.00
47753;BME280;2038;51.728;6.674;2022-08-05T01:08:34;100775.69;;;20.59;100.00
47753;BME280;2038;51.728;6.674;2022-08-05T01:11:11;100775.81;;;20.64;100.00
47753;BME280;2038;51.728;6.674;2022-08-05T01:14:08;100776.50;;;20.57;100.00
47753;BME280;2038;51.728;6.674;2022-08-05T01:17:26;100774.88;;;20.60;100.00
47753;BME280;2038;51.728;6.674;2022-08-05T01:20:15;100777.56;;;20.65;100.00
47753;BME280;2038;51.728;6.674;2022-08-05T01:23:03;100768.22;;;20.70;100.00
47753;BME280;2038;51.728;6.674;2022-08-05T01:28:42;100760.16;;;20.59;100.00
47753;BME280;2038;51.728;6.674;2022-08-05T01:31:28;100764.56;;;20.62;100.00
47753;BME280;2038;51.728;6.674;2022-08-05T01:34:27;100761.09;;;20.61;100.00
47753;BME280;2038;51.728;6.674;2022-08-05T01:37:16;100769.88;;;20.68;100.00
47753;BME280;2038;51.728;6.674;2022-08-05T01:39:49;100764.75;;;20.69;100.00
47753;BME280;2038;51.728;6.674;2022-08-05T01:42:20;100763.88;;;20.69;100.00
47753;BME280;2038;51.728;6.674;2022-08-05T01:44:50;100768.13;;;20.67;100.00
47753;BME280;2038;51.728;6.674;2022-08-05T01:47:23;100763.56;;;20.57;100.00
47753;BME280;2038;51.728;6.674;2022-08-05T01:49:52;100770.19;;;20.45;100.00
47753;BME280;2038;51.728;6.674;2022-08-05T01:52:21;100758.69;;;20.36;100.00
47753;BME280;2038;51.728;6.674;2022-08-05T01:54:57;100756.72;;;20.27;100.00
47753;BME280;2038;51.728;6.674;2022-08-05T01:57:31;100764.34;;;20.23;100.00
47753;BME280;2038;51.728;6.674;2022-08-05T02:00:05;100776.34;;;20.19;100.00
47753;BME280;2038;51.728;6.674;2022-08-05T02:02:33;100779.84;;;20.21;100.00
47753;BME280;2038;51.728;6.674;2022-08-05T02:05:06;100794.63;;;20.25;100.00
47753;BME280;2038;51.728;6.674;2022-08-05T02:07:36;100804.81;;;20.19;100.00
47753;BME280;2038;51.728;6.674;2022-08-05T02:10:04;100802.28;;;20.22;100.00
47753;BME280;2038;51.728;6.674;2022-08-05T02:12:38;100810.06;;;20.22;100.00
47753;BME280;2038;51.728;6.674;2022-08-05T02:15:30;100818.09;;;20.30;100.00
47753;BME280;2038;51.728;6.674;2022-08-05T02:18:06;100823.56;;;20.40;100.00
47753;BME280;2038;51.728;6.674;2022-08-05T02:21:02;100827.28;;;20.51;100.00
47753;BME280;2038;51.728;6.674;2022-08-05T02:23:37;100834.44;;;20.60;100.00
47753;BME280;2038;51.728;6.674;2022-08-05T02:26:08;100843.78;;;20.55;100.00
47753;BME280;2038;51.728;6.674;2022-08-05T02:28:39;100847.94;;;20.48;100.00
47753;BME280;2038;51.728;6.674;2022-08-05T02:31:16;100850.47;;;20.47;100.00
47753;BME280;2038;51.728;6.674;2022-08-05T02:34:00;100841.72;;;20.42;100.00
47753;BME280;2038;51.728;6.674;2022-08-05T02:36:31;100849.44;;;20.40;100.00
47753;BME280;2038;51.728;6.674;2022-08-05T02:39:02;100851.22;;;20.41;100.00
47753;BME280;2038;51.728;6.674;2022-08-05T02:41:32;100862.38;;;20.40;100.00
47753;BME280;2038;51.728;6.674;2022-08-05T02:44:00;100852.03;;;20.40;100.00
47753;BME280;2038;51.728;6.674;2022-08-05T02:46:28;100837.50;;;20.45;100.00
47753;BME280;2038;51.728;6.674;2022-08-05T02:48:55;100839.22;;;20.46;100.00
47753;BME280;2038;51.728;6.674;2022-08-05T02:51:23;100835.00;;;20.48;100.00
47753;BME280;2038;51.728;6.674;2022-08-05T02:53:51;100837.66;;;20.51;100.00
47753;BME280;2038;51.728;6.674;2022-08-05T02:56:19;100823.19;;;20.58;100.00
47753;BME280;2038;51.728;6.674;2022-08-05T02:58:46;100821.38;;;20.55;100.00
47753;BME280;2038;51.728;6.674;2022-08-05T03:01:23;100800.50;;;20.49;100.00
47753;BME280;2038;51.728;6.674;2022-08-05T03:03:57;100785.78;;;20.48;100.00
47753;BME280;2038;51.728;6.674;2022-08-05T03:06:26;100768.44;;;20.44;100.00
47753;BME280;2038;51.728;6.674;2022-08-05T03:08:53;100732.69;;;20.30;100.00
47753;BME280;2038;51.728;6.674;2022-08-05T03:11:23;100671.75;;;20.11;100.00
47753;BME280;2038;51.728;6.674;2022-08-05T03:13:52;100693.75;;;19.95;100.00
47753;BME280;2038;51.728;6.674;2022-08-05T03:16:20;100696.31;;;19.94;100.00
47753;BME280;2038;51.728;6.674;2022-08-05T03:18:46;100701.50;;;19.94;100.00
47753;BME280;2038;51.728;6.674;2022-08-05T03:21:13;100722.13;;;19.92;100.00
47753;BME280;2038;51.728;6.674;2022-08-05T03:23:42;100747.19;;;19.93;100.00
47753;BME280;2038;51.728;6.674;2022-08-05T03:26:08;100746.31;;;19.94;100.00
47753;BME280;2038;51.728;6.674;2022-08-05T03:28:36;100750.66;;;19.94;100.00
47753;BME280;2038;51.728;6.674;2022-08-05T03:31:03;100768.88;;;19.98;100.00
47753;BME280;2038;51.728;6.674;2022-08-05T03:33:31;100777.56;;;20.00;100.00
47753;BME280;2038;51.728;6.674;2022-08-05T03:35:58;100786.94;;;19.97;100.00
47753;BME280;2038;51.728;6.674;2022-08-05T03:38:26;100780.00;;;19.96;100.00
47753;BME280;2038;51.728;6.674;2022-08-05T03:40:52;100785.19;;;19.96;100.00
47753;BME280;2038;51.728;6.674;2022-08-05T03:43:19;100775.63;;;19.93;100.00
47753;BME280;2038;51.728;6.674;2022-08-05T03:45:46;100780.75;;;19.92;100.00
47753;BME280;2038;51.728;6.674;2022-08-05T03:48:12;100794.44;;;19.88;100.00
47753;BME280;2038;51.728;6.674;2022-08-05T03:53:59;100805.81;;;19.94;100.00
47753;BME280;2038;51.728;6.674;2022-08-05T03:56:40;100812.59;;;19.89;100.00
47753;BME280;2038;51.728;6.674;2022-08-05T03:59:18;100809.75;;;19.80;100.00
47753;BME280;2038;51.728;6.674;2022-08-05T04:01:50;100801.03;;;19.77;100.00
47753;BME280;2038;51.728;6.674;2022-08-05T04:04:20;100801.44;;;19.62;100.00
47753;BME280;2038;51.728;6.674;2022-08-05T04:06:47;100778.66;;;19.49;100.00
47753;BME280;2038;51.728;6.674;2022-08-05T04:09:15;100781.59;;;19.34;100.00
47753;BME280;2038;51.728;6.674;2022-08-05T04:11:43;100768.00;;;19.40;100.00
47753;BME280;2038;51.728;6.674;2022-08-05T04:14:10;100772.78;;;19.28;100.00
47753;BME280;2038;51.728;6.674;2022-08-05T04:16:37;100774.56;;;19.29;100.00
47753;BME280;2038;51.728;6.674;2022-08-05T04:19:03;100774.56;;;19.29;100.00
47753;BME280;2038;51.728;6.674;2022-08-05T04:21:30;100775.53;;;19.32;100.00
47753;BME280;2038;51.728;6.674;2022-08-05T04:23:57;100771.19;;;19.31;100.00
47753;BME280;2038;51.728;6.674;2022-08-05T04:26:24;100776.16;;;19.25;100.00
47753;BME280;2038;51.728;6.674;2022-08-05T04:28:50;100775.28;;;19.25;100.00
47753;BME280;2038;51.728;6.674;2022-08-05T04:31:16;100773.53;;;19.24;100.00
47753;BME280;2038;51.728;6.674;2022-08-05T04:33:42;100777.88;;;19.25;100.00
47753;BME280;2038;51.728;6.674;2022-08-05T04:36:09;100777.06;;;19.26;100.00
47753;BME280;2038;51.728;6.674;2022-08-05T04:38:36;100779.81;;;19.32;100.00
47753;BME280;2038;51.728;6.674;2022-08-05T04:41:02;100779.81;;;19.32;100.00
47753;BME280;2038;51.728;6.674;2022-08-05T04:43:28;100781.72;;;19.37;100.00
47753;BME280;2038;51.728;6.674;2022-08-05T04:45:55;100771.56;;;19.43;100.00
47753;BME280;2038;51.728;6.674;2022-08-05T04:48:21;100773.34;;;19.44;100.00
47753;BME280;2038;51.728;6.674;2022-08-05T04:50:48;100781.78;;;19.40;100.00
47753;BME280;2038;51.728;6.674;2022-08-05T04:53:15;100776.50;;;19.36;100.00
47753;BME280;2038;51.728;6.674;2022-08-05T04:55:44;100781.44;;;19.28;100.00
47753;BME280;2038;51.728;6.674;2022-08-05T04:58:12;100787.25;;;19.21;100.00
47753;BME280;2038;51.728;6.674;2022-08-05T05:00:42;100793.38;;;19.25;100.00
47753;BME280;2038;51.728;6.674;2022-08-05T05:03:10;100798.56;;;19.25;100.00
47753;BME280;2038;51.728;6.674;2022-08-05T05:05:37;100793.47;;;19.28;100.00
47753;BME280;2038;51.728;6.674;2022-08-05T05:08:06;100778.59;;;19.21;100.00
47753;BME280;2038;51.728;6.674;2022-08-05T05:10:39;100776.47;;;19.07;100.00
47753;BME280;2038;51.728;6.674;2022-08-05T05:13:12;100774.56;;;19.02;100.00
47753;BME280;2038;51.728;6.674;2022-08-05T05:15:41;100778.00;;;19.02;100.00
47753;BME280;2038;51.728;6.674;2022-08-05T05:18:08;100779.72;;;19.02;100.00
47753;BME280;2038;51.728;6.674;2022-08-05T05:20:35;100786.50;;;18.98;100.00
47753;BME280;2038;51.728;6.674;2022-08-05T05:23:02;100794.22;;;18.97;100.00
47753;BME280;2038;51.728;6.674;2022-08-05T05:25:31;100796.81;;;18.97;100.00
47753;BME280;2038;51.728;6.674;2022-08-05T05:27:57;100805.63;;;19.03;100.00
47753;BME280;2038;51.728;6.674;2022-08-05T05:30:24;100803.91;;;19.04;100.00
47753;BME280;2038;51.728;6.674;2022-08-05T05:32:51;100808.34;;;19.08;100.00
47753;BME280;2038;51.728;6.674;2022-08-05T05:35:17;100812.78;;;19.12;100.00
47753;BME280;2038;51.728;6.674;2022-08-05T05:38:03;100824.97;;;19.16;100.00
47753;BME280;2038;51.728;6.674;2022-08-05T05:40:31;100832.56;;;19.11;100.00
47753;BME280;2038;51.728;6.674;2022-08-05T05:42:58;100841.13;;;19.09;100.00
47753;BME280;2038;51.728;6.674;2022-08-05T05:45:25;100851.31;;;19.06;100.00
47753;BME280;2038;51.728;6.674;2022-08-05T05:47:52;100878.56;;;18.96;100.00
47753;BME280;2038;51.728;6.674;2022-08-05T05:50:18;100888.66;;;18.89;100.00
47753;BME280;2038;51.728;6.674;2022-08-05T05:52:46;100870.56;;;18.89;100.00
47753;BME280;2038;51.728;6.674;2022-08-05T05:55:14;100856.69;;;18.85;100.00
47753;BME280;2038;51.728;6.674;2022-08-05T05:57:43;100865.03;;;18.78;100.00
47753;BME280;2038;51.728;6.674;2022-08-05T06:00:17;100876.91;;;18.73;100.00
47753;BME280;2038;51.728;6.674;2022-08-05T06:02:46;100872.50;;;18.70;100.00
47753;BME280;2038;51.728;6.674;2022-08-05T06:05:14;100861.09;;;18.64;100.00
47753;BME280;2038;51.728;6.674;2022-08-05T06:07:41;100846.50;;;18.64;100.00
47753;BME280;2038;51.728;6.674;2022-08-05T06:10:09;100840.22;;;18.58;100.00
47753;BME280;2038;51.728;6.674;2022-08-05T06:12:37;100844.22;;;18.50;100.00
47753;BME280;2038;51.728;6.674;2022-08-05T06:15:05;100835.56;;;18.48;100.00
47753;BME280;2038;51.728;6.674;2022-08-05T06:17:32;100844.50;;;18.34;100.00
47753;BME280;2038;51.728;6.674;2022-08-05T06:19:59;100845.53;;;18.39;100.00
47753;BME280;2038;51.728;6.674;2022-08-05T06:22:27;100842.63;;;18.30;100.00
47753;BME280;2038;51.728;6.674;2022-08-05T06:24:58;100841.81;;;18.31;100.00
47753;BME280;2038;51.728;6.674;2022-08-05T06:27:24;100846.16;;;18.32;100.00
47753;BME280;2038;51.728;6.674;2022-08-05T06:29:51;100851.22;;;18.29;100.00
47753;BME280;2038;51.728;6.674;2022-08-05T06:32:17;100861.75;;;18.35;100.00
47753;BME280;2038;51.728;6.674;2022-08-05T06:34:44;100884.66;;;18.49;100.00
47753;BME280;2038;51.728;6.674;2022-08-05T06:37:10;100900.88;;;18.45;100.00
47753;BME280;2038;51.728;6.674;2022-08-05T06:39:36;100896.88;;;18.53;100.00
47753;BME280;2038;51.728;6.674;2022-08-05T06:42:04;100891.09;;;18.60;100.00
47753;BME280;2038;51.728;6.674;2022-08-05T06:44:30;100884.25;;;18.39;100.00
47753;BME280;2038;51.728;6.674;2022-08-05T06:46:56;100883.97;;;18.31;100.00
47753;BME280;2038;51.728;6.674;2022-08-05T06:49:23;100885.94;;;18.38;100.00
47753;BME280;2038;51.728;6.674;2022-08-05T06:51:50;100891.06;;;18.37;100.00
47753;BME280;2038;51.728;6.674;2022-08-05T06:54:17;100891.06;;;18.37;100.00
47753;BME280;2038;51.728;6.674;2022-08-05T06:56:43;100893.53;;;18.34;100.00
47753;BME280;2038;51.728;6.674;2022-08-05T06:59:09;100884.22;;;18.37;100.00
47753;BME280;2038;51.728;6.674;2022-08-05T07:01:38;100888.50;;;18.37;100.00
47753;BME280;2038;51.728;6.674;2022-08-05T07:04:04;100892.88;;;18.39;100.00
47753;BME280;2038;51.728;6.674;2022-08-05T07:06:30;100892.69;;;18.33;100.00
47753;BME280;2038;51.728;6.674;2022-08-05T07:08:56;100900.69;;;18.41;100.00
47753;BME280;2038;51.728;6.674;2022-08-05T07:11:22;100896.34;;;18.40;100.00
47753;BME280;2038;51.728;6.674;2022-08-05T07:13:49;100904.66;;;18.55;100.00
47753;BME280;2038;51.728;6.674;2022-08-05T07:16:33;100914.47;;;18.41;100.00
47753;BME280;2038;51.728;6.674;2022-08-05T07:19:19;100934.00;;;18.35;100.00
47753;BME280;2038;51.728;6.674;2022-08-05T07:21:47;100942.72;;;18.38;100.00
47753;BME280;2038;51.728;6.674;2022-08-05T07:24:15;100957.75;;;18.48;100.00
47753;BME280;2038;51.728;6.674;2022-08-05T07:26:44;100944.53;;;18.63;100.00
47753;BME280;2038;51.728;6.674;2022-08-05T07:29:11;100936.78;;;18.63;100.00
47753;BME280;2038;51.728;6.674;2022-08-05T07:31:38;100931.81;;;18.67;100.00
47753;BME280;2038;51.728;6.674;2022-08-05T07:34:04;100936.97;;;18.67;100.00
47753;BME280;2038;51.728;6.674;2022-08-05T07:36:30;100936.97;;;18.67;100.00
47753;BME280;2038;51.728;6.674;2022-08-05T07:39:05;100935.34;;;18.69;100.00
47753;BME280;2038;51.728;6.674;2022-08-05T07:41:34;100934.44;;;18.69;100.00
47753;BME280;2038;51.728;6.674;2022-08-05T07:44:02;100932.00;;;18.97;100.00
47753;BME280;2038;51.728;6.674;2022-08-05T07:46:31;100934.88;;;19.06;100.00
47753;BME280;2038;51.728;6.674;2022-08-05T07:49:00;100930.69;;;19.10;100.00
47753;BME280;2038;51.728;6.674;2022-08-05T07:51:27;100939.63;;;18.94;100.00
47753;BME280;2038;51.728;6.674;2022-08-05T07:53:52;100939.53;;;18.91;100.00
47753;BME280;2038;51.728;6.674;2022-08-05T07:56:18;100942.03;;;18.90;100.00
47753;BME280;2038;51.728;6.674;2022-08-05T07:58:44;100946.34;;;18.89;100.00
47753;BME280;2038;51.728;6.674;2022-08-05T08:01:10;100955.25;;;18.97;100.00
47753;BME280;2038;51.728;6.674;2022-08-05T08:03:36;100953.53;;;18.98;100.00
47753;BME280;2038;51.728;6.674;2022-08-05T08:06:02;100952.94;;;19.05;100.00
47753;BME280;2038;51.728;6.674;2022-08-05T08:08:28;100946.16;;;19.08;100.00
47753;BME280;2038;51.728;6.674;2022-08-05T08:10:54;100959.97;;;19.09;100.00
47753;BME280;2038;51.728;6.674;2022-08-05T08:13:21;100967.28;;;19.22;100.00
47753;BME280;2038;51.728;6.674;2022-08-05T08:15:47;100971.94;;;19.32;100.00
47753;BME280;2038;51.728;6.674;2022-08-05T08:18:13;100978.81;;;19.32;100.00
47753;BME280;2038;51.728;6.674;2022-08-05T08:20:39;100975.59;;;19.39;100.00
47753;BME280;2038;51.728;6.674;2022-08-05T08:23:05;100974.16;;;19.45;100.00
47753;BME280;2038;51.728;6.674;2022-08-05T08:25:32;100981.28;;;19.52;100.00
47753;BME280;2038;51.728;6.674;2022-08-05T08:27:59;100979.75;;;19.59;100.00
47753;BME280;2038;51.728;6.674;2022-08-05T08:30:26;100986.06;;;19.67;100.00
47753;BME280;2038;51.728;6.674;2022-08-05T08:32:52;100995.69;;;19.71;100.00
47753;BME280;2038;51.728;6.674;2022-08-05T08:35:18;100994.69;;;19.68;100.00
47753;BME280;2038;51.728;6.674;2022-08-05T08:37:45;100995.75;;;19.73;100.00
47753;BME280;2038;51.728;6.674;2022-08-05T08:40:12;100995.84;;;19.76;100.00
47753;BME280;2038;51.728;6.674;2022-08-05T08:42:39;100996.66;;;19.75;100.00
47753;BME280;2038;51.728;6.674;2022-08-05T08:45:07;100990.97;;;19.85;100.00
47753;BME280;2038;51.728;6.674;2022-08-05T08:47:35;101000.56;;;19.89;100.00
47753;BME280;2038;51.728;6.674;2022-08-05T08:50:05;101000.66;;;19.92;100.00
47753;BME280;2038;51.728;6.674;2022-08-05T08:52:35;101006.56;;;19.88;100.00
47753;BME280;2038;51.728;6.674;2022-08-05T08:55:02;101004.38;;;20.00;100.00
47753;BME280;2038;51.728;6.674;2022-08-05T08:57:29;101002.56;;;19.97;100.00
47753;BME280;2038;51.728;6.674;2022-08-05T08:59:57;101011.53;;;20.08;100.00
47753;BME280;2038;51.728;6.674;2022-08-05T09:02:24;101013.69;;;20.22;100.00
47753;BME280;2038;51.728;6.674;2022-08-05T09:04:51;101025.06;;;20.55;100.00
47753;BME280;2038;51.728;6.674;2022-08-05T09:07:17;101024.53;;;20.65;100.00
47753;BME280;2038;51.728;6.674;2022-08-05T09:09:44;101030.66;;;20.69;100.00
47753;BME280;2038;51.728;6.674;2022-08-05T09:12:10;101032.81;;;20.83;100.00
47753;BME280;2038;51.728;6.674;2022-08-05T09:14:37;101040.09;;;20.96;100.00
47753;BME280;2038;51.728;6.674;2022-08-05T09:17:07;101039.34;;;21.00;100.00
47753;BME280;2038;51.728;6.674;2022-08-05T09:19:37;101035.19;;;21.06;100.00
47753;BME280;2038;51.728;6.674;2022-08-05T09:22:03;101039.63;;;21.10;100.00
47753;BME280;2038;51.728;6.674;2022-08-05T09:24:29;101045.03;;;21.17;100.00
47753;BME280;2038;51.728;6.674;2022-08-05T09:26:57;101052.47;;;21.07;100.00
47753;BME280;2038;51.728;6.674;2022-08-05T09:29:41;101054.44;;;21.14;100.00
47753;BME280;2038;51.728;6.674;2022-08-05T09:32:13;101050.28;;;21.20;100.00
47753;BME280;2038;51.728;6.674;2022-08-05T09:34:55;101061.81;;;21.31;100.00
47753;BME280;2038;51.728;6.674;2022-08-05T09:37:25;101067.25;;;21.40;100.00
47753;BME280;2038;51.728;6.674;2022-08-05T09:39:53;101077.75;;;21.45;100.00
47753;BME280;2038;51.728;6.674;2022-08-05T09:42:20;101076.13;;;21.48;100.00
47753;BME280;2038;51.728;6.674;2022-08-05T09:44:49;101082.22;;;21.51;100.00
47753;BME280;2038;51.728;6.674;2022-08-05T09:47:20;101089.28;;;21.56;100.00
47753;BME280;2038;51.728;6.674;2022-08-05T09:49:53;101090.31;;;21.63;100.00
47753;BME280;2038;51.728;6.674;2022-08-05T09:52:27;101078.59;;;21.77;100.00
47753;BME280;2038;51.728;6.674;2022-08-05T09:55:04;101070.94;;;21.83;100.00
47753;BME280;2038;51.728;6.674;2022-08-05T09:57:44;101085.81;;;21.88;100.00
47753;BME280;2038;51.728;6.674;2022-08-05T10:00:16;101080.84;;;21.96;100.00
47753;BME280;2038;51.728;6.674;2022-08-05T10:02:46;101089.56;;;22.00;100.00
47753;BME280;2038;51.728;6.674;2022-08-05T10:05:17;101095.03;;;22.10;100.00
47753;BME280;2038;51.728;6.674;2022-08-05T10:07:54;101100.38;;;22.16;100.00
47753;BME280;2038;51.728;6.674;2022-08-05T10:10:49;101101.66;;;22.35;100.00
47753;BME280;2038;51.728;6.674;2022-08-05T10:16:02;101096.97;;;22.56;100.00
47753;BME280;2038;51.728;6.674;2022-08-05T10:18:30;101101.44;;;22.62;100.00
47753;BME280;2038;51.728;6.674;2022-08-05T10:21:05;101106.69;;;22.65;100.00
47753;BME280;2038;51.728;6.674;2022-08-05T10:23:35;101111.84;;;22.62;100.00
47753;BME280;2038;51.728;6.674;2022-08-05T10:26:08;101115.09;;;22.53;100.00
47753;BME280;2038;51.728;6.674;2022-08-05T10:28:37;101120.34;;;22.55;100.00
47753;BME280;2038;51.728;6.674;2022-08-05T10:31:04;101114.38;;;22.59;100.00
47753;BME280;2038;51.728;6.674;2022-08-05T10:33:33;101123.25;;;22.68;100.00
47753;BME280;2038;51.728;6.674;2022-08-05T10:36:01;101122.22;;;22.62;100.00
47753;BME280;2038;51.728;6.674;2022-08-05T10:38:30;101125.13;;;22.74;100.00
47753;BME280;2038;51.728;6.674;2022-08-05T10:41:31;101125.25;;;22.80;100.00
47753;BME280;2038;51.728;6.674;2022-08-05T10:44:10;101123.63;;;22.85;100.00
47753;BME280;2038;51.728;6.674;2022-08-05T10:46:48;101127.06;;;22.82;100.00
47753;BME280;2038;51.728;6.674;2022-08-05T10:49:17;101124.63;;;22.92;100.00
47753;BME280;2038;51.728;6.674;2022-08-05T10:51:48;101129.16;;;23.00;100.00
47753;BME280;2038;51.728;6.674;2022-08-05T10:54:16;101126.81;;;23.12;100.00
47753;BME280;2038;51.728;6.674;2022-08-05T10:56:49;101128.72;;;23.21;100.00
47753;BME280;2038;51.728;6.674;2022-08-05T10:59:20;101133.09;;;23.22;100.00
47753;BME280;2038;51.728;6.674;2022-08-05T11:02:09;101131.56;;;23.33;100.00
47753;BME280;2038;51.728;6.674;2022-08-05T11:04:45;101125.63;;;23.39;100.00
47753;BME280;2038;51.728;6.674;2022-08-05T11:07:14;101129.97;;;23.40;100.00
47753;BME280;2038;51.728;6.674;2022-08-05T11:09:45;101131.09;;;23.52;100.00
47753;BME280;2038;51.728;6.674;2022-08-05T11:15:29;101141.59;;;23.57;100.00
47753;BME280;2038;51.728;6.674;2022-08-05T11:18:27;101136.22;;;23.46;100.00
47753;BME280;2038;51.728;6.674;2022-08-05T11:20:55;101138.25;;;23.62;100.00
47753;BME280;2038;51.728;6.674;2022-08-05T11:23:50;101137.50;;;23.69;100.00
47753;BME280;2038;51.728;6.674;2022-08-05T11:26:24;101139.94;;;23.60;99.80
47753;BME280;2038;51.728;6.674;2022-08-05T11:28:52;101150.03;;;23.44;99.25
47753;BME280;2038;51.728;6.674;2022-08-05T11:31:21;101148.78;;;23.26;100.00
47753;BME280;2038;51.728;6.674;2022-08-05T11:33:53;101153.06;;;23.24;98.83
47753;BME280;2038;51.728;6.674;2022-08-05T11:36:40;101148.56;;;23.16;99.44
47753;BME280;2038;51.728;6.674;2022-08-05T11:39:15;101147.72;;;22.76;98.78
47753;BME280;2038;51.728;6.674;2022-08-05T11:42:01;101156.91;;;22.62;98.71
47753;BME280;2038;51.728;6.674;2022-08-05T11:44:36;101152.38;;;22.55;97.60
47753;BME280;2038;51.728;6.674;2022-08-05T11:47:04;101152.41;;;22.57;97.55
47753;BME280;2038;51.728;6.674;2022-08-05T11:49:30;101152.47;;;22.60;94.77
47753;BME280;2038;51.728;6.674;2022-08-05T11:51:56;101144.72;;;22.61;95.28
47753;BME280;2038;51.728;6.674;2022-08-05T11:54:27;101143.84;;;22.61;95.55
47753;BME280;2038;51.728;6.674;2022-08-05T11:56:57;101151.69;;;22.62;96.78
47753;BME280;2038;51.728;6.674;2022-08-05T11:59:27;101145.56;;;22.59;95.31
47753;BME280;2038;51.728;6.674;2022-08-05T12:02:04;101150.81;;;22.62;94.02
47753;BME280;2038;51.728;6.674;2022-08-05T12:04:45;101150.03;;;22.66;91.69
47753;BME280;2038;51.728;6.674;2022-08-05T12:07:15;101149.31;;;22.70;91.23
47753;BME280;2038;51.728;6.674;2022-08-05T12:09:47;101147.19;;;22.93;88.39
47753;BME280;2038;51.728;6.674;2022-08-05T12:12:26;101153.66;;;23.11;92.43
47753;BME280;2038;51.728;6.674;2022-08-05T12:14:55;101154.31;;;23.01;91.22
47753;BME280;2038;51.728;6.674;2022-08-05T12:17:23;101152.91;;;23.17;93.04
47753;BME280;2038;51.728;6.674;2022-08-05T12:19:54;101158.38;;;23.29;91.28
47753;BME280;2038;51.728;6.674;2022-08-05T12:22:26;101174.13;;;23.37;88.15
47753;BME280;2038;51.728;6.674;2022-08-05T12:24:54;101169.81;;;23.37;88.90
47753;BME280;2038;51.728;6.674;2022-08-05T12:27:28;101181.59;;;23.20;88.07
47753;BME280;2038;51.728;6.674;2022-08-05T12:30:10;101186.78;;;23.20;87.90
47753;BME280;2038;51.728;6.674;2022-08-05T12:32:47;101185.75;;;23.12;88.95
47753;BME280;2038;51.728;6.674;2022-08-05T12:35:20;101186.56;;;23.09;89.22
47753;BME280;2038;51.728;6.674;2022-08-05T12:37:48;101189.34;;;23.17;89.02
47753;BME280;2038;51.728;6.674;2022-08-05T12:40:15;101192.00;;;23.20;84.53
47753;BME280;2038;51.728;6.674;2022-08-05T12:42:41;101200.88;;;23.31;86.74
47753;BME280;2038;51.728;6.674;2022-08-05T12:45:08;101203.34;;;23.23;82.44
47753;BME280;2038;51.728;6.674;2022-08-05T12:47:36;101206.69;;;23.18;82.16
47753;BME280;2038;51.728;6.674;2022-08-05T12:50:15;101208.31;;;23.13;82.89
47753;BME280;2038;51.728;6.674;2022-08-05T12:52:54;101210.88;;;23.11;84.31
47753;BME280;2038;51.728;6.674;2022-08-05T12:55:26;101214.16;;;23.03;84.86
47753;BME280;2038;51.728;6.674;2022-08-05T12:57:56;101220.81;;;22.90;81.10
47753;BME280;2038;51.728;6.674;2022-08-05T13:00:28;101218.22;;;22.92;81.00
47753;BME280;2038;51.728;6.674;2022-08-05T13:02:57;101218.94;;;22.84;78.74
47753;BME280;2038;51.728;6.674;2022-08-05T13:05:25;101232.00;;;22.88;76.93
47753;BME280;2038;51.728;6.674;2022-08-05T13:07:57;101218.88;;;22.81;77.80
47753;BME280;2038;51.728;6.674;2022-08-05T13:10:23;101222.13;;;22.73;75.66
47753;BME280;2038;51.728;6.674;2022-08-05T13:12:50;101216.97;;;22.74;77.10
47753;BME280;2038;51.728;6.674;2022-08-05T13:15:17;101212.97;;;22.89;76.45
47753;BME280;2038;51.728;6.674;2022-08-05T13:17:53;101224.47;;;23.00;74.60